sensor_id;sensor_type;location;lat;lon;timestamp;P1;durP1;ratioP1;P2;durP2;ratioP2
8293;SDS011;4185;41.506;24.938;2024-02-28T00:02:25;5.60;;;4.57;;
8293;SDS011;4185;41.506;24.938;2024-02-28T00:04:53;5.10;;;3.47;;
8293;SDS011;4185;41.506;24.938;2024-02-28T00:07:20;6.60;;;4.27;;
8293;SDS011;4185;41.506;24.938;2024-02-28T00:09:46;7.37;;;4.33;;
8293;SDS011;4185;41.506;24.938;2024-02-28T00:12:13;10.47;;;5.40;;
8293;SDS011;4185;41.506;24.938;2024-02-28T00:14:40;18.03;;;7.20;;
8293;SDS011;4185;41.506;24.938;2024-02-28T00:17:08;20.23;;;8.10;;
8293;SDS011;4185;41.506;24.938;2024-02-28T00:19:35;17.40;;;7.10;;
8293;SDS011;4185;41.506;24.938;2024-02-28T00:22:01;22.37;;;8.70;;
8293;SDS011;4185;41.506;24.938;2024-02-28T00:24:28;31.60;;;10.03;;
8293;SDS011;4185;41.506;24.938;2024-02-28T00:26:56;51.67;;;16.17;;
8293;SDS011;4185;41.506;24.938;2024-02-28T00:29:22;55.73;;;17.30;;
8293;SDS011;4185;41.506;24.938;2024-02-28T00:31:49;125.67;;;28.10;;
8293;SDS011;4185;41.506;24.938;2024-02-28T00:34:17;33.03;;;12.17;;
8293;SDS011;4185;41.506;24.938;2024-02-28T00:36:44;32.23;;;11.70;;
8293;SDS011;4185;41.506;24.938;2024-02-28T00:39:11;13.87;;;6.90;;
8293;SDS011;4185;41.506;24.938;2024-02-28T00:41:37;21.23;;;8.03;;
8293;SDS011;4185;41.506;24.938;2024-02-28T00:44:04;13.20;;;5.97;;
8293;SDS011;4185;41.506;24.938;2024-02-28T00:46:30;14.00;;;6.40;;
8293;SDS011;4185;41.506;24.938;2024-02-28T00:48:57;12.97;;;6.23;;
8293;SDS011;4185;41.506;24.938;2024-02-28T00:51:25;11.80;;;5.47;;
8293;SDS011;4185;41.506;24.938;2024-02-28T00:53:52;7.77;;;4.60;;
8293;SDS011;4185;41.506;24.938;2024-02-28T00:56:19;4.17;;;3.60;;
8293;SDS011;4185;41.506;24.938;2024-02-28T00:58:45;7.73;;;3.97;;
8293;SDS011;4185;41.506;24.938;2024-02-28T01:01:12;6.57;;;4.10;;
8293;SDS011;4185;41.506;24.938;2024-02-28T01:03:39;6.43;;;4.33;;
8293;SDS011;4185;41.506;24.938;2024-02-28T01:06:05;9.23;;;4.60;;
8293;SDS011;4185;41.506;24.938;2024-02-28T01:08:34;11.10;;;5.80;;
8293;SDS011;4185;41.506;24.938;2024-02-28T01:11:00;12.00;;;5.97;;
8293;SDS011;4185;41.506;24.938;2024-02-28T01:13:27;21.83;;;10.43;;
8293;SDS011;4185;41.506;24.938;2024-02-28T01:15:54;29.30;;;12.07;;
8293;SDS011;4185;41.506;24.938;2024-02-28T01:18:20;15.93;;;7.93;;
8293;SDS011;4185;41.506;24.938;2024-02-28T01:20:47;17.33;;;8.80;;
8293;SDS011;4185;41.506;24.938;2024-02-28T01:23:15;8.40;;;4.93;;
8293;SDS011;4185;41.506;24.938;2024-02-28T01:25:43;11.33;;;7.17;;
8293;SDS011;4185;41.506;24.938;2024-02-28T01:28:10;8.13;;;5.03;;
8293;SDS011;4185;41.506;24.938;2024-02-28T01:30:37;9.63;;;6.60;;
8293;SDS011;4185;41.506;24.938;2024-02-28T01:33:04;8.87;;;5.27;;
8293;SDS011;4185;41.506;24.938;2024-02-28T01:35:31;9.10;;;5.87;;
8293;SDS011;4185;41.506;24.938;2024-02-28T01:37:57;6.97;;;5.07;;
8293;SDS011;4185;41.506;24.938;2024-02-28T01:40:24;4.20;;;3.73;;
8293;SDS011;4185;41.506;24.938;2024-02-28T01:42:52;5.83;;;4.30;;
8293;SDS011;4185;41.506;24.938;2024-02-28T01:45:19;5.00;;;4.20;;
8293;SDS011;4185;41.506;24.938;2024-02-28T01:47:45;5.97;;;3.50;;
8293;SDS011;4185;41.506;24.938;2024-02-28T01:50:12;4.30;;;3.37;;
8293;SDS011;4185;41.506;24.938;2024-02-28T01:52:39;5.17;;;4.10;;
8293;SDS011;4185;41.506;24.938;2024-02-28T01:55:07;6.63;;;4.83;;
8293;SDS011;4185;41.506;24.938;2024-02-28T01:57:35;6.50;;;4.57;;
8293;SDS011;4185;41.506;24.938;2024-02-28T02:00:04;6.70;;;5.07;;
8293;SDS011;4185;41.506;24.938;2024-02-28T02:02:33;9.70;;;5.70;;
8293;SDS011;4185;41.506;24.938;2024-02-28T02:05:00;7.90;;;5.40;;
8293;SDS011;4185;41.506;24.938;2024-02-28T02:07:26;11.67;;;5.97;;
8293;SDS011;4185;41.506;24.938;2024-02-28T02:09:53;7.03;;;4.53;;
8293;SDS011;4185;41.506;24.938;2024-02-28T02:12:21;9.80;;;6.57;;
8293;SDS011;4185;41.506;24.938;2024-02-28T02:14:48;9.17;;;5.67;;
8293;SDS011;4185;41.506;24.938;2024-02-28T02:17:16;4.33;;;3.63;;
8293;SDS011;4185;41.506;24.938;2024-02-28T02:19:42;4.83;;;3.93;;
8293;SDS011;4185;41.506;24.938;2024-02-28T02:22:10;10.70;;;5.20;;
8293;SDS011;4185;41.506;24.938;2024-02-28T02:24:41;6.90;;;5.07;;
8293;SDS011;4185;41.506;24.938;2024-02-28T02:27:08;5.87;;;5.00;;
8293;SDS011;4185;41.506;24.938;2024-02-28T02:29:34;7.43;;;4.87;;
8293;SDS011;4185;41.506;24.938;2024-02-28T02:32:01;7.57;;;4.80;;
8293;SDS011;4185;41.506;24.938;2024-02-28T02:34:28;6.43;;;4.30;;
8293;SDS011;4185;41.506;24.938;2024-02-28T02:36:54;5.13;;;4.00;;
8293;SDS011;4185;41.506;24.938;2024-02-28T02:39:21;4.97;;;3.70;;
8293;SDS011;4185;41.506;24.938;2024-02-28T02:41:49;6.17;;;4.40;;
8293;SDS011;4185;41.506;24.938;2024-02-28T02:44:16;7.87;;;4.67;;
8293;SDS011;4185;41.506;24.938;2024-02-28T02:46:42;8.03;;;4.57;;
8293;SDS011;4185;41.506;24.938;2024-02-28T02:49:09;9.07;;;4.40;;
8293;SDS011;4185;41.506;24.938;2024-02-28T02:51:36;6.90;;;4.60;;
8293;SDS011;4185;41.506;24.938;2024-02-28T02:54:03;6.30;;;4.50;;
8293;SDS011;4185;41.506;24.938;2024-02-28T02:56:29;7.47;;;4.13;;
8293;SDS011;4185;41.506;24.938;2024-02-28T02:58:57;23.00;;;11.37;;
8293;SDS011;4185;41.506;24.938;2024-02-28T03:01:24;27.37;;;13.37;;
8293;SDS011;4185;41.506;24.938;2024-02-28T03:03:51;18.83;;;11.00;;
8293;SDS011;4185;41.506;24.938;2024-02-28T03:06:17;17.40;;;10.50;;
8293;SDS011;4185;41.506;24.938;2024-02-28T03:08:44;12.63;;;7.20;;
8293;SDS011;4185;41.506;24.938;2024-02-28T03:11:11;5.07;;;4.13;;
8293;SDS011;4185;41.506;24.938;2024-02-28T03:13:38;8.17;;;5.33;;
8293;SDS011;4185;41.506;24.938;2024-02-28T03:16:06;6.40;;;4.33;;
8293;SDS011;4185;41.506;24.938;2024-02-28T03:18:33;7.17;;;4.37;;
8293;SDS011;4185;41.506;24.938;2024-02-28T03:21:00;7.90;;;5.30;;
8293;SDS011;4185;41.506;24.938;2024-02-28T03:23:27;6.30;;;5.07;;
8293;SDS011;4185;41.506;24.938;2024-02-28T03:25:53;6.20;;;4.60;;
8293;SDS011;4185;41.506;24.938;2024-02-28T03:28:20;5.47;;;4.57;;
8293;SDS011;4185;41.506;24.938;2024-02-28T03:30:47;5.93;;;4.97;;
8293;SDS011;4185;41.506;24.938;2024-02-28T03:33:15;4.90;;;4.30;;
8293;SDS011;4185;41.506;24.938;2024-02-28T03:35:42;15.67;;;9.17;;
8293;SDS011;4185;41.506;24.938;2024-02-28T03:38:08;12.00;;;8.07;;
8293;SDS011;4185;41.506;24.938;2024-02-28T03:40:35;10.10;;;7.00;;
8293;SDS011;4185;41.506;24.938;2024-02-28T03:43:02;8.53;;;6.17;;
8293;SDS011;4185;41.506;24.938;2024-02-28T03:45:29;7.47;;;5.17;;
8293;SDS011;4185;41.506;24.938;2024-02-28T03:47:55;8.33;;;5.57;;
8293;SDS011;4185;41.506;24.938;2024-02-28T03:50:23;10.20;;;5.83;;
8293;SDS011;4185;41.506;24.938;2024-02-28T03:52:50;7.23;;;5.27;;
8293;SDS011;4185;41.506;24.938;2024-02-28T03:55:17;11.90;;;6.27;;
8293;SDS011;4185;41.506;24.938;2024-02-28T03:57:46;11.77;;;8.80;;
8293;SDS011;4185;41.506;24.938;2024-02-28T04:00:14;6.00;;;4.50;;
8293;SDS011;4185;41.506;24.938;2024-02-28T04:02:42;9.07;;;7.37;;
8293;SDS011;4185;41.506;24.938;2024-02-28T04:05:09;9.23;;;7.07;;
8293;SDS011;4185;41.506;24.938;2024-02-28T04:07:37;9.00;;;6.13;;
8293;SDS011;4185;41.506;24.938;2024-02-28T04:10:04;10.60;;;6.00;;
8293;SDS011;4185;41.506;24.938;2024-02-28T04:12:31;6.40;;;5.23;;
8293;SDS011;4185;41.506;24.938;2024-02-28T04:14:58;8.10;;;4.77;;
8293;SDS011;4185;41.506;24.938;2024-02-28T04:17:25;5.70;;;4.17;;
8293;SDS011;4185;41.506;24.938;2024-02-28T04:19:51;9.17;;;5.03;;
8293;SDS011;4185;41.506;24.938;2024-02-28T04:22:18;8.00;;;5.03;;
8293;SDS011;4185;41.506;24.938;2024-02-28T04:24:46;7.10;;;5.10;;
8293;SDS011;4185;41.506;24.938;2024-02-28T04:27:13;10.20;;;6.77;;
8293;SDS011;4185;41.506;24.938;2024-02-28T04:29:40;11.33;;;6.60;;
8293;SDS011;4185;41.506;24.938;2024-02-28T04:32:07;8.57;;;5.87;;
8293;SDS011;4185;41.506;24.938;2024-02-28T04:34:35;11.13;;;6.83;;
8293;SDS011;4185;41.506;24.938;2024-02-28T04:37:02;9.07;;;5.93;;
8293;SDS011;4185;41.506;24.938;2024-02-28T04:39:29;7.23;;;5.57;;
8293;SDS011;4185;41.506;24.938;2024-02-28T04:41:57;10.63;;;6.90;;
8293;SDS011;4185;41.506;24.938;2024-02-28T04:44:24;13.63;;;6.07;;
8293;SDS011;4185;41.506;24.938;2024-02-28T04:46:51;9.93;;;6.03;;
8293;SDS011;4185;41.506;24.938;2024-02-28T04:49:17;11.23;;;6.17;;
8293;SDS011;4185;41.506;24.938;2024-02-28T04:51:45;12.77;;;7.13;;
8293;SDS011;4185;41.506;24.938;2024-02-28T04:54:11;11.17;;;7.00;;
8293;SDS011;4185;41.506;24.938;2024-02-28T04:56:39;9.53;;;6.40;;
8293;SDS011;4185;41.506;24.938;2024-02-28T04:59:08;12.37;;;7.63;;
8293;SDS011;4185;41.506;24.938;2024-02-28T05:01:35;12.10;;;8.50;;
8293;SDS011;4185;41.506;24.938;2024-02-28T05:04:05;15.40;;;9.07;;
8293;SDS011;4185;41.506;24.938;2024-02-28T05:06:32;13.37;;;8.57;;
8293;SDS011;4185;41.506;24.938;2024-02-28T05:08:59;16.37;;;11.37;;
8293;SDS011;4185;41.506;24.938;2024-02-28T05:11:26;25.50;;;15.50;;
8293;SDS011;4185;41.506;24.938;2024-02-28T05:13:53;23.50;;;11.77;;
8293;SDS011;4185;41.506;24.938;2024-02-28T05:16:21;27.30;;;13.87;;
8293;SDS011;4185;41.506;24.938;2024-02-28T05:18:47;15.53;;;9.13;;
8293;SDS011;4185;41.506;24.938;2024-02-28T05:21:14;13.40;;;8.90;;
8293;SDS011;4185;41.506;24.938;2024-02-28T05:23:41;14.23;;;9.17;;
8293;SDS011;4185;41.506;24.938;2024-02-28T05:26:08;14.90;;;7.97;;
8293;SDS011;4185;41.506;24.938;2024-02-28T05:28:35;12.73;;;8.27;;
8293;SDS011;4185;41.506;24.938;2024-02-28T05:31:03;15.50;;;10.03;;
8293;SDS011;4185;41.506;24.938;2024-02-28T05:33:48;16.53;;;10.57;;
8293;SDS011;4185;41.506;24.938;2024-02-28T05:36:15;19.43;;;10.20;;
8293;SDS011;4185;41.506;24.938;2024-02-28T05:38:42;17.07;;;10.10;;
8293;SDS011;4185;41.506;24.938;2024-02-28T05:41:09;17.53;;;10.40;;
8293;SDS011;4185;41.506;24.938;2024-02-28T05:43:36;17.73;;;10.27;;
8293;SDS011;4185;41.506;24.938;2024-02-28T05:46:03;15.63;;;9.53;;
8293;SDS011;4185;41.506;24.938;2024-02-28T05:48:31;15.43;;;9.73;;
8293;SDS011;4185;41.506;24.938;2024-02-28T05:50:58;16.37;;;10.47;;
8293;SDS011;4185;41.506;24.938;2024-02-28T05:53:26;18.00;;;7.97;;
8293;SDS011;4185;41.506;24.938;2024-02-28T05:55:56;8.97;;;7.00;;
8293;SDS011;4185;41.506;24.938;2024-02-28T05:58:23;28.07;;;15.17;;
8293;SDS011;4185;41.506;24.938;2024-02-28T06:00:50;44.00;;;25.03;;
8293;SDS011;4185;41.506;24.938;2024-02-28T06:03:17;14.47;;;9.43;;
8293;SDS011;4185;41.506;24.938;2024-02-28T06:05:45;40.90;;;25.83;;
8293;SDS011;4185;41.506;24.938;2024-02-28T06:08:12;110.80;;;75.07;;
8293;SDS011;4185;41.506;24.938;2024-02-28T06:10:39;129.47;;;88.30;;
8293;SDS011;4185;41.506;24.938;2024-02-28T06:13:07;21.70;;;15.40;;
8293;SDS011;4185;41.506;24.938;2024-02-28T06:15:34;33.80;;;20.43;;
8293;SDS011;4185;41.506;24.938;2024-02-28T06:18:01;19.97;;;13.03;;
8293;SDS011;4185;41.506;24.938;2024-02-28T06:20:27;91.47;;;32.00;;
8293;SDS011;4185;41.506;24.938;2024-02-28T06:22:55;18.03;;;10.13;;
8293;SDS011;4185;41.506;24.938;2024-02-28T06:25:22;42.23;;;30.93;;
8293;SDS011;4185;41.506;24.938;2024-02-28T06:27:50;40.27;;;25.90;;
8293;SDS011;4185;41.506;24.938;2024-02-28T06:30:16;33.30;;;19.17;;
8293;SDS011;4185;41.506;24.938;2024-02-28T06:32:43;20.83;;;13.13;;
8293;SDS011;4185;41.506;24.938;2024-02-28T06:35:10;15.03;;;8.60;;
8293;SDS011;4185;41.506;24.938;2024-02-28T06:37:37;14.63;;;7.80;;
8293;SDS011;4185;41.506;24.938;2024-02-28T06:40:05;13.90;;;8.50;;
8293;SDS011;4185;41.506;24.938;2024-02-28T06:42:34;16.07;;;10.10;;
8293;SDS011;4185;41.506;24.938;2024-02-28T06:45:01;16.80;;;11.37;;
8293;SDS011;4185;41.506;24.938;2024-02-28T06:47:29;13.00;;;10.47;;
8293;SDS011;4185;41.506;24.938;2024-02-28T06:49:57;16.97;;;10.03;;
8293;SDS011;4185;41.506;24.938;2024-02-28T06:52:24;10.83;;;7.90;;
8293;SDS011;4185;41.506;24.938;2024-02-28T06:54:51;15.30;;;9.40;;
8293;SDS011;4185;41.506;24.938;2024-02-28T06:57:19;11.07;;;7.53;;
8293;SDS011;4185;41.506;24.938;2024-02-28T06:59:46;10.50;;;6.90;;
8293;SDS011;4185;41.506;24.938;2024-02-28T07:02:13;10.20;;;7.37;;
8293;SDS011;4185;41.506;24.938;2024-02-28T07:04:40;13.13;;;7.73;;
8293;SDS011;4185;41.506;24.938;2024-02-28T07:07:07;12.73;;;8.00;;
8293;SDS011;4185;41.506;24.938;2024-02-28T07:09:34;14.43;;;10.07;;
8293;SDS011;4185;41.506;24.938;2024-02-28T07:12:00;20.10;;;10.40;;
8293;SDS011;4185;41.506;24.938;2024-02-28T07:14:30;19.37;;;9.30;;
8293;SDS011;4185;41.506;24.938;2024-02-28T07:16:56;9.93;;;7.37;;
8293;SDS011;4185;41.506;24.938;2024-02-28T07:19:23;14.77;;;10.40;;
8293;SDS011;4185;41.506;24.938;2024-02-28T07:21:50;14.57;;;8.20;;
8293;SDS011;4185;41.506;24.938;2024-02-28T07:24:16;11.70;;;9.40;;
8293;SDS011;4185;41.506;24.938;2024-02-28T07:26:43;16.53;;;10.67;;
8293;SDS011;4185;41.506;24.938;2024-02-28T07:29:12;17.07;;;10.70;;
8293;SDS011;4185;41.506;24.938;2024-02-28T07:31:40;14.97;;;9.00;;
8293;SDS011;4185;41.506;24.938;2024-02-28T07:34:06;13.13;;;8.90;;
8293;SDS011;4185;41.506;24.938;2024-02-28T07:36:33;12.87;;;8.43;;
8293;SDS011;4185;41.506;24.938;2024-02-28T07:39:00;11.40;;;6.70;;
8293;SDS011;4185;41.506;24.938;2024-02-28T07:41:28;9.60;;;6.63;;
8293;SDS011;4185;41.506;24.938;2024-02-28T07:43:54;12.10;;;7.03;;
8293;SDS011;4185;41.506;24.938;2024-02-28T07:46:21;8.83;;;6.43;;
8293;SDS011;4185;41.506;24.938;2024-02-28T07:48:49;8.63;;;5.77;;
8293;SDS011;4185;41.506;24.938;2024-02-28T07:51:16;7.27;;;5.03;;
8293;SDS011;4185;41.506;24.938;2024-02-28T07:53:43;10.37;;;7.40;;
8293;SDS011;4185;41.506;24.938;2024-02-28T07:56:15;8.07;;;7.10;;
8293;SDS011;4185;41.506;24.938;2024-02-28T07:58:42;11.17;;;8.33;;
8293;SDS011;4185;41.506;24.938;2024-02-28T08:01:09;7.30;;;5.53;;
8293;SDS011;4185;41.506;24.938;2024-02-28T08:03:35;14.43;;;6.00;;
8293;SDS011;4185;41.506;24.938;2024-02-28T08:06:04;9.97;;;6.03;;
8293;SDS011;4185;41.506;24.938;2024-02-28T08:08:31;7.70;;;4.77;;
8293;SDS011;4185;41.506;24.938;2024-02-28T08:10:57;7.90;;;5.00;;
8293;SDS011;4185;41.506;24.938;2024-02-28T08:13:24;9.00;;;4.80;;
8293;SDS011;4185;41.506;24.938;2024-02-28T08:15:53;6.97;;;4.17;;
8293;SDS011;4185;41.506;24.938;2024-02-28T08:18:20;5.03;;;3.90;;
8293;SDS011;4185;41.506;24.938;2024-02-28T08:20:46;6.73;;;4.57;;
8293;SDS011;4185;41.506;24.938;2024-02-28T08:23:16;10.20;;;4.63;;
8293;SDS011;4185;41.506;24.938;2024-02-28T08:25:43;6.50;;;5.43;;
8293;SDS011;4185;41.506;24.938;2024-02-28T08:28:10;8.67;;;6.53;;
8293;SDS011;4185;41.506;24.938;2024-02-28T08:30:36;8.20;;;5.60;;
8293;SDS011;4185;41.506;24.938;2024-02-28T08:33:03;11.20;;;5.03;;
8293;SDS011;4185;41.506;24.938;2024-02-28T08:35:32;6.57;;;4.90;;
8293;SDS011;4185;41.506;24.938;2024-02-28T08:37:59;7.03;;;4.77;;
8293;SDS011;4185;41.506;24.938;2024-02-28T08:40:27;9.13;;;6.47;;
8293;SDS011;4185;41.506;24.938;2024-02-28T08:42:53;6.20;;;5.03;;
8293;SDS011;4185;41.506;24.938;2024-02-28T08:45:21;6.60;;;4.93;;
8293;SDS011;4185;41.506;24.938;2024-02-28T08:47:48;8.70;;;5.90;;
8293;SDS011;4185;41.506;24.938;2024-02-28T08:50:15;9.93;;;5.53;;
8293;SDS011;4185;41.506;24.938;2024-02-28T08:52:42;8.33;;;5.37;;
8293;SDS011;4185;41.506;24.938;2024-02-28T08:55:09;8.73;;;5.80;;
8293;SDS011;4185;41.506;24.938;2024-02-28T08:57:37;9.10;;;6.00;;
8293;SDS011;4185;41.506;24.938;2024-02-28T09:00:04;9.47;;;4.17;;
8293;SDS011;4185;41.506;24.938;2024-02-28T09:02:33;8.37;;;4.57;;
8293;SDS011;4185;41.506;24.938;2024-02-28T09:05:02;5.63;;;4.80;;
8293;SDS011;4185;41.506;24.938;2024-02-28T09:07:29;5.10;;;3.93;;
8293;SDS011;4185;41.506;24.938;2024-02-28T09:09:56;5.40;;;4.90;;
8293;SDS011;4185;41.506;24.938;2024-02-28T09:12:23;6.00;;;3.70;;
8293;SDS011;4185;41.506;24.938;2024-02-28T09:14:51;5.67;;;4.10;;
8293;SDS011;4185;41.506;24.938;2024-02-28T09:17:22;5.17;;;3.87;;
8293;SDS011;4185;41.506;24.938;2024-02-28T09:19:48;5.57;;;4.00;;
8293;SDS011;4185;41.506;24.938;2024-02-28T09:22:15;7.00;;;2.90;;
8293;SDS011;4185;41.506;24.938;2024-02-28T09:24:42;4.77;;;3.50;;
8293;SDS011;4185;41.506;24.938;2024-02-28T09:27:09;4.50;;;3.53;;
8293;SDS011;4185;41.506;24.938;2024-02-28T09:29:36;8.30;;;4.40;;
8293;SDS011;4185;41.506;24.938;2024-02-28T09:32:05;4.83;;;3.47;;
8293;SDS011;4185;41.506;24.938;2024-02-28T09:34:32;7.00;;;4.60;;
8293;SDS011;4185;41.506;24.938;2024-02-28T09:36:58;7.03;;;3.70;;
8293;SDS011;4185;41.506;24.938;2024-02-28T09:39:26;5.70;;;4.20;;
8293;SDS011;4185;41.506;24.938;2024-02-28T09:41:52;3.07;;;2.40;;
8293;SDS011;4185;41.506;24.938;2024-02-28T09:44:19;11.03;;;5.60;;
8293;SDS011;4185;41.506;24.938;2024-02-28T09:46:48;6.27;;;4.30;;
8293;SDS011;4185;41.506;24.938;2024-02-28T09:49:18;6.53;;;3.47;;
8293;SDS011;4185;41.506;24.938;2024-02-28T09:51:45;8.37;;;4.60;;
8293;SDS011;4185;41.506;24.938;2024-02-28T09:54:16;7.70;;;5.10;;
8293;SDS011;4185;41.506;24.938;2024-02-28T09:56:43;8.13;;;5.67;;
8293;SDS011;4185;41.506;24.938;2024-02-28T09:59:10;8.70;;;3.97;;
8293;SDS011;4185;41.506;24.938;2024-02-28T10:01:41;4.90;;;2.70;;
8293;SDS011;4185;41.506;24.938;2024-02-28T10:04:10;11.40;;;7.33;;
8293;SDS011;4185;41.506;24.938;2024-02-28T10:06:40;7.10;;;3.00;;
8293;SDS011;4185;41.506;24.938;2024-02-28T10:09:07;3.10;;;2.80;;
8293;SDS011;4185;41.506;24.938;2024-02-28T10:11:35;6.17;;;4.37;;
8293;SDS011;4185;41.506;24.938;2024-02-28T10:14:03;4.00;;;3.00;;
8293;SDS011;4185;41.506;24.938;2024-02-28T10:16:29;5.67;;;2.80;;
8293;SDS011;4185;41.506;24.938;2024-02-28T10:18:56;14.50;;;9.00;;
8293;SDS011;4185;41.506;24.938;2024-02-28T10:21:23;12.53;;;4.03;;
8293;SDS011;4185;41.506;24.938;2024-02-28T10:23:52;7.43;;;3.70;;
8293;SDS011;4185;41.506;24.938;2024-02-28T10:26:19;5.70;;;4.00;;
8293;SDS011;4185;41.506;24.938;2024-02-28T10:28:46;5.93;;;3.80;;
8293;SDS011;4185;41.506;24.938;2024-02-28T10:31:12;7.93;;;4.53;;
8293;SDS011;4185;41.506;24.938;2024-02-28T10:33:41;6.60;;;3.80;;
8293;SDS011;4185;41.506;24.938;2024-02-28T10:36:08;4.10;;;3.00;;
8293;SDS011;4185;41.506;24.938;2024-02-28T10:38:36;5.77;;;3.60;;
8293;SDS011;4185;41.506;24.938;2024-02-28T10:41:05;7.97;;;6.00;;
8293;SDS011;4185;41.506;24.938;2024-02-28T10:43:32;7.00;;;3.70;;
8293;SDS011;4185;41.506;24.938;2024-02-28T10:46:00;5.77;;;4.00;;
8293;SDS011;4185;41.506;24.938;2024-02-28T10:48:27;3.93;;;3.03;;
8293;SDS011;4185;41.506;24.938;2024-02-28T10:50:54;6.00;;;3.60;;
8293;SDS011;4185;41.506;24.938;2024-02-28T10:53:22;8.33;;;5.47;;
8293;SDS011;4185;41.506;24.938;2024-02-28T10:55:58;18.50;;;13.00;;
8293;SDS011;4185;41.506;24.938;2024-02-28T10:58:32;15.07;;;5.33;;
8293;SDS011;4185;41.506;24.938;2024-02-28T11:01:02;11.67;;;5.37;;
8293;SDS011;4185;41.506;24.938;2024-02-28T11:03:29;13.33;;;7.60;;
8293;SDS011;4185;41.506;24.938;2024-02-28T11:05:56;12.57;;;5.67;;
8293;SDS011;4185;41.506;24.938;2024-02-28T11:08:24;10.30;;;6.33;;
8293;SDS011;4185;41.506;24.938;2024-02-28T11:10:55;7.10;;;4.57;;
8293;SDS011;4185;41.506;24.938;2024-02-28T11:13:22;5.80;;;4.00;;
8293;SDS011;4185;41.506;24.938;2024-02-28T11:15:50;7.17;;;3.60;;
8293;SDS011;4185;41.506;24.938;2024-02-28T11:18:17;5.20;;;3.07;;
8293;SDS011;4185;41.506;24.938;2024-02-28T11:20:44;5.33;;;3.77;;
8293;SDS011;4185;41.506;24.938;2024-02-28T11:23:14;4.67;;;3.77;;
8293;SDS011;4185;41.506;24.938;2024-02-28T11:25:41;16.63;;;7.33;;
8293;SDS011;4185;41.506;24.938;2024-02-28T11:28:08;13.53;;;5.37;;
8293;SDS011;4185;41.506;24.938;2024-02-28T11:30:35;20.83;;;8.27;;
8293;SDS011;4185;41.506;24.938;2024-02-28T11:33:03;13.70;;;6.63;;
8293;SDS011;4185;41.506;24.938;2024-02-28T11:35:33;6.57;;;4.00;;
8293;SDS011;4185;41.506;24.938;2024-02-28T11:38:00;5.77;;;4.30;;
8293;SDS011;4185;41.506;24.938;2024-02-28T11:40:26;6.87;;;5.13;;
8293;SDS011;4185;41.506;24.938;2024-02-28T11:42:53;9.23;;;5.70;;
8293;SDS011;4185;41.506;24.938;2024-02-28T11:45:21;10.17;;;5.13;;
8293;SDS011;4185;41.506;24.938;2024-02-28T11:47:48;7.43;;;4.70;;
8293;SDS011;4185;41.506;24.938;2024-02-28T11:50:16;4.70;;;3.27;;
8293;SDS011;4185;41.506;24.938;2024-02-28T11:52:44;6.17;;;4.03;;
8293;SDS011;4185;41.506;24.938;2024-02-28T11:55:11;12.63;;;8.07;;
8293;SDS011;4185;41.506;24.938;2024-02-28T11:57:37;6.53;;;3.70;;
8293;SDS011;4185;41.506;24.938;2024-02-28T12:00:05;9.53;;;4.17;;
8293;SDS011;4185;41.506;24.938;2024-02-28T12:02:34;8.80;;;4.47;;
8293;SDS011;4185;41.506;24.938;2024-02-28T12:05:01;5.60;;;4.00;;
8293;SDS011;4185;41.506;24.938;2024-02-28T12:07:30;6.83;;;4.47;;
8293;SDS011;4185;41.506;24.938;2024-02-28T12:09:57;6.47;;;4.40;;
8293;SDS011;4185;41.506;24.938;2024-02-28T12:12:24;5.83;;;4.53;;
8293;SDS011;4185;41.506;24.938;2024-02-28T12:14:51;9.87;;;5.37;;
8293;SDS011;4185;41.506;24.938;2024-02-28T12:17:18;7.87;;;4.83;;
8293;SDS011;4185;41.506;24.938;2024-02-28T12:19:45;5.83;;;4.17;;
8293;SDS011;4185;41.506;24.938;2024-02-28T12:22:11;10.10;;;5.37;;
8293;SDS011;4185;41.506;24.938;2024-02-28T12:24:39;7.07;;;3.77;;
8293;SDS011;4185;41.506;24.938;2024-02-28T12:27:06;9.57;;;4.97;;
8293;SDS011;4185;41.506;24.938;2024-02-28T12:29:33;7.77;;;4.60;;
8293;SDS011;4185;41.506;24.938;2024-02-28T12:32:00;4.90;;;3.43;;
8293;SDS011;4185;41.506;24.938;2024-02-28T12:34:27;5.27;;;4.73;;
8293;SDS011;4185;41.506;24.938;2024-02-28T12:36:53;11.30;;;5.07;;
8293;SDS011;4185;41.506;24.938;2024-02-28T12:39:20;8.73;;;4.47;;
8293;SDS011;4185;41.506;24.938;2024-02-28T12:41:49;7.13;;;5.30;;
8293;SDS011;4185;41.506;24.938;2024-02-28T12:44:15;8.13;;;3.93;;
8293;SDS011;4185;41.506;24.938;2024-02-28T12:46:42;7.27;;;3.90;;
8293;SDS011;4185;41.506;24.938;2024-02-28T12:49:09;7.30;;;4.73;;
8293;SDS011;4185;41.506;24.938;2024-02-28T12:51:36;6.10;;;4.00;;
8293;SDS011;4185;41.506;24.938;2024-02-28T12:54:07;5.10;;;3.70;;
8293;SDS011;4185;41.506;24.938;2024-02-28T12:56:34;9.00;;;4.03;;
8293;SDS011;4185;41.506;24.938;2024-02-28T12:59:02;6.80;;;4.30;;
8293;SDS011;4185;41.506;24.938;2024-02-28T13:01:28;7.23;;;3.97;;
8293;SDS011;4185;41.506;24.938;2024-02-28T13:03:55;7.63;;;4.13;;
8293;SDS011;4185;41.506;24.938;2024-02-28T13:06:23;5.57;;;3.90;;
8293;SDS011;4185;41.506;24.938;2024-02-28T13:08:49;7.47;;;4.77;;
8293;SDS011;4185;41.506;24.938;2024-02-28T13:11:18;8.47;;;4.57;;
8293;SDS011;4185;41.506;24.938;2024-02-28T13:13:45;5.97;;;3.70;;
8293;SDS011;4185;41.506;24.938;2024-02-28T13:16:14;6.57;;;3.00;;
8293;SDS011;4185;41.506;24.938;2024-02-28T13:18:40;6.37;;;3.50;;
8293;SDS011;4185;41.506;24.938;2024-02-28T13:21:07;5.40;;;3.30;;
8293;SDS011;4185;41.506;24.938;2024-02-28T13:23:34;4.63;;;3.77;;
8293;SDS011;4185;41.506;24.938;2024-02-28T13:26:02;6.13;;;3.30;;
8293;SDS011;4185;41.506;24.938;2024-02-28T13:28:29;7.13;;;3.90;;
8293;SDS011;4185;41.506;24.938;2024-02-28T13:30:56;5.20;;;3.70;;
8293;SDS011;4185;41.506;24.938;2024-02-28T13:33:25;7.13;;;3.90;;
8293;SDS011;4185;41.506;24.938;2024-02-28T13:35:52;5.93;;;3.60;;
8293;SDS011;4185;41.506;24.938;2024-02-28T13:38:20;6.63;;;4.30;;
8293;SDS011;4185;41.506;24.938;2024-02-28T13:40:47;7.67;;;4.57;;
8293;SDS011;4185;41.506;24.938;2024-02-28T13:43:15;7.57;;;3.83;;
8293;SDS011;4185;41.506;24.938;2024-02-28T13:45:45;9.37;;;5.40;;
8293;SDS011;4185;41.506;24.938;2024-02-28T13:48:14;7.57;;;4.40;;
8293;SDS011;4185;41.506;24.938;2024-02-28T13:50:45;6.10;;;4.23;;
8293;SDS011;4185;41.506;24.938;2024-02-28T13:53:11;10.87;;;6.37;;
8293;SDS011;4185;41.506;24.938;2024-02-28T13:55:39;6.90;;;4.13;;
8293;SDS011;4185;41.506;24.938;2024-02-28T13:58:05;7.80;;;4.07;;
8293;SDS011;4185;41.506;24.938;2024-02-28T14:00:33;4.90;;;4.40;;
8293;SDS011;4185;41.506;24.938;2024-02-28T14:03:00;7.50;;;4.00;;
8293;SDS011;4185;41.506;24.938;2024-02-28T14:05:27;8.73;;;5.50;;
8293;SDS011;4185;41.506;24.938;2024-02-28T14:07:55;7.93;;;5.93;;
8293;SDS011;4185;41.506;24.938;2024-02-28T14:10:23;8.00;;;5.07;;
8293;SDS011;4185;41.506;24.938;2024-02-28T14:12:50;8.00;;;5.97;;
8293;SDS011;4185;41.506;24.938;2024-02-28T14:15:18;6.37;;;4.90;;
8293;SDS011;4185;41.506;24.938;2024-02-28T14:17:45;8.37;;;5.10;;
8293;SDS011;4185;41.506;24.938;2024-02-28T14:20:11;8.33;;;5.77;;
8293;SDS011;4185;41.506;24.938;2024-02-28T14:22:39;6.43;;;4.80;;
8293;SDS011;4185;41.506;24.938;2024-02-28T14:25:08;10.57;;;6.50;;
8293;SDS011;4185;41.506;24.938;2024-02-28T14:27:38;10.20;;;6.40;;
8293;SDS011;4185;41.506;24.938;2024-02-28T14:30:05;7.47;;;4.93;;
8293;SDS011;4185;41.506;24.938;2024-02-28T14:32:34;9.17;;;6.03;;
8293;SDS011;4185;41.506;24.938;2024-02-28T14:35:01;13.17;;;7.40;;
8293;SDS011;4185;41.506;24.938;2024-02-28T14:37:28;7.00;;;6.10;;
8293;SDS011;4185;41.506;24.938;2024-02-28T14:39:54;9.83;;;6.33;;
8293;SDS011;4185;41.506;24.938;2024-02-28T14:42:22;10.73;;;7.93;;
8293;SDS011;4185;41.506;24.938;2024-02-28T14:44:49;10.80;;;6.93;;
8293;SDS011;4185;41.506;24.938;2024-02-28T14:47:18;11.07;;;7.63;;
8293;SDS011;4185;41.506;24.938;2024-02-28T14:49:45;9.40;;;5.83;;
8293;SDS011;4185;41.506;24.938;2024-02-28T14:52:12;10.17;;;5.83;;
8293;SDS011;4185;41.506;24.938;2024-02-28T14:54:39;11.33;;;5.77;;